^^
Station Historical Data
 
Daily Summary for March 24, 2017 Units:  English    Metric   Both
« Previous Day
Next Day »
Daily Weekly Monthly Yearly Custom
  Current: High: Low: Average:
Temperature: 42.1 °F 59.1 °F 40.6 °F 48.6 °F
Dew Point: 29.2 °F 34.8 °F 24.6 °F 30.5 °F
Humidity: 60% 79% 28% 53%
Wind Speed: 0.0mph 31.1mph 0.0mph 13.6mph
Wind Gust: 0.0mph 31.1mph - -
WindCalm - - South
Pressure: 30.04 in 30.04 in 29.49 in -
Precipitation: 0.15 in      
Historical Graphs
 
 
Tabular Data for March 24, 2017
Time Temperature Dew Point Pressure Wind Wind Speed Wind Gust Humidity Rainfall Rate (Hourly) solar Conditions
00:03 42.9 °F 34.8 °F 29.52 in NNE 13.0 mph 13.0 mph 73% 0.01 in WeatherDisplay:10.37 W/m2
00:08 43.2 °F 34.4 °F 29.49 in NNW 31.1 mph 31.1 mph 71% 0.01 in WeatherDisplay:10.37 W/m2
00:13 43.5 °F 33.6 °F 29.52 in NNW 25.3 mph 25.3 mph 68% 0.01 in WeatherDisplay:10.37 W/m2
00:18 43.7 °F 33.8 °F 29.54 in North 13.8 mph 13.8 mph 68% 0.01 in WeatherDisplay:10.37 W/m2
00:23 43.7 °F 33.1 °F 29.54 in North 19.6 mph 19.6 mph 66% 0.01 in WeatherDisplay:10.37 W/m2 CLR
00:28 43.7 °F 33.1 °F 29.54 in North 19.6 mph 19.6 mph 66% 0.00 in WeatherDisplay:10.37 W/m2 CLR
00:33 43.6 °F 32.6 °F 29.54 in North 21.9 mph 21.9 mph 65% 0.00 in WeatherDisplay:10.37 W/m2 CLR
00:38 43.6 °F 32.6 °F 29.54 in NNW 26.5 mph 26.5 mph 65% 0.00 in WeatherDisplay:10.37 W/m2 CLR
00:43 43.6 °F 32.6 °F 29.55 in NNW 24.2 mph 24.2 mph 65% 0.00 in WeatherDisplay:10.37 W/m2 CLR
00:48 43.7 °F 33.1 °F 29.56 in North 13.8 mph 13.8 mph 66% 0.00 in WeatherDisplay:10.37 W/m2 CLR
00:53 43.8 °F 33.2 °F 29.56 in North 15.0 mph 15.0 mph 66% 0.00 in WeatherDisplay:10.37 W/m2 CLR
00:58 43.8 °F 32.8 °F 29.55 in NNW 19.6 mph 19.6 mph 65% 0.00 in WeatherDisplay:10.37 W/m2 CLR
01:03 43.9 °F 32.5 °F 29.55 in NNW 13.8 mph 13.8 mph 64% 0.00 in WeatherDisplay:10.37 W/m2 CLR
01:08 43.9 °F 32.5 °F 29.56 in North 17.3 mph 17.3 mph 64% 0.00 in WeatherDisplay:10.37 W/m2 CLR
01:13 43.9 °F 32.5 °F 29.56 in North 19.6 mph 19.6 mph 64% 0.00 in WeatherDisplay:10.37 W/m2 CLR
01:18 43.9 °F 32.1 °F 29.57 in North 18.4 mph 18.4 mph 63% 0.00 in WeatherDisplay:10.37 W/m2 CLR
01:23 44.0 °F 32.6 °F 29.58 in North 16.1 mph 16.1 mph 64% 0.00 in WeatherDisplay:10.37 W/m2 CLR
01:28 44.1 °F 31.9 °F 29.58 in North 20.7 mph 20.7 mph 62% 0.00 in WeatherDisplay:10.37 W/m2 CLR
01:33 44.1 °F 31.9 °F 29.59 in NNW 24.2 mph 24.2 mph 62% 0.00 in WeatherDisplay:10.37 W/m2 CLR
01:38 44.2 °F 32.0 °F 29.61 in NE 19.6 mph 19.6 mph 62% 0.00 in WeatherDisplay:10.37 W/m2 CLR
01:43 44.3 °F 31.7 °F 29.62 in NNE 19.6 mph 19.6 mph 61% 0.00 in WeatherDisplay:10.37 W/m2 CLR
01:48 44.3 °F 32.1 °F 29.62 in NE 12.7 mph 12.7 mph 62% 0.00 in WeatherDisplay:10.37 W/m2 CLR
01:53 44.1 °F 32.3 °F 29.63 in NNE 13.8 mph 13.8 mph 63% 0.00 in WeatherDisplay:10.37 W/m2 CLR
01:58 44.0 °F 32.2 °F 29.64 in NE 13.0 mph 13.0 mph 63% 0.00 in WeatherDisplay:10.37 W/m2 CLR
02:03 43.8 °F 32.0 °F 29.66 in NNE 12.7 mph 12.7 mph 63% 0.00 in WeatherDisplay:10.37 W/m2 CLR
02:08 43.6 °F 31.8 °F 29.66 in NNE 17.3 mph 17.3 mph 63% 0.00 in WeatherDisplay:10.37 W/m2 CLR
02:13 43.4 °F 32.0 °F 29.67 in North 18.4 mph 18.4 mph 64% 0.00 in WeatherDisplay:10.37 W/m2 CLR
02:18 43.2 °F 32.2 °F 29.68 in NE 16.1 mph 16.1 mph 65% 0.00 in WeatherDisplay:10.37 W/m2 CLR
02:23 42.9 °F 32.7 °F 29.68 in NE 19.6 mph 19.6 mph 67% 0.00 in WeatherDisplay:10.37 W/m2 CLR
02:28 42.5 °F 33.4 °F 29.68 in NE 19.6 mph 19.6 mph 70% 0.00 in WeatherDisplay:10.37 W/m2 CLR
02:33 42.1 °F 33.4 °F 29.69 in NE 16.1 mph 16.1 mph 71% 0.00 in WeatherDisplay:10.37 W/m2 CLR
02:38 41.7 °F 33.7 °F 29.69 in NNW 19.6 mph 19.6 mph 73% 0.01 in WeatherDisplay:10.37 W/m2 RA
02:43 41.5 °F 33.5 °F 29.69 in NNW 17.3 mph 17.3 mph 73% 0.03 in WeatherDisplay:10.37 W/m2 RA
02:48 41.4 °F 33.4 °F 29.70 in North 20.7 mph 20.7 mph 73% 0.04 in WeatherDisplay:10.37 W/m2 RA
02:53 41.1 °F 33.8 °F 29.70 in NNE 16.1 mph 16.1 mph 75% 0.05 in WeatherDisplay:10.37 W/m2 RA
02:58 40.9 °F 33.6 °F 29.70 in NNE 25.3 mph 25.3 mph 75% 0.06 in WeatherDisplay:10.37 W/m2 RA
03:03 41.0 °F 34.0 °F 29.71 in NE 15.0 mph 15.0 mph 76% 0.08 in WeatherDisplay:10.37 W/m2 RA
03:08 40.9 °F 34.2 °F 29.71 in NNW 24.2 mph 24.2 mph 77% 0.09 in WeatherDisplay:10.37 W/m2 RA
03:13 40.7 °F 34.0 °F 29.71 in NW 20.7 mph 20.7 mph 77% 0.10 in WeatherDisplay:10.37 W/m2 RA
03:19 40.6 °F 34.3 °F 29.71 in NE 15.0 mph 15.0 mph 78% 0.10 in WeatherDisplay:10.37 W/m2 RA
03:24 40.6 °F 34.3 °F 29.71 in North 17.3 mph 17.3 mph 78% 0.11 in WeatherDisplay:10.37 W/m2 RA
03:29 40.6 °F 34.6 °F 29.71 in NNW 12.7 mph 12.7 mph 79% 0.11 in WeatherDisplay:10.37 W/m2 RA
03:34 40.6 °F 34.3 °F 29.71 in NNW 18.4 mph 18.4 mph 78% 0.11 in WeatherDisplay:10.37 W/m2 CLR
03:39 40.7 °F 34.4 °F 29.71 in North 12.7 mph 12.7 mph 78% 0.10 in WeatherDisplay:10.37 W/m2 CLR
03:44 40.7 °F 34.4 °F 29.71 in North 17.3 mph 17.3 mph 78% 0.09 in WeatherDisplay:10.37 W/m2 RA
03:49 40.8 °F 34.1 °F 29.71 in NNW 20.7 mph 20.7 mph 77% 0.08 in WeatherDisplay:10.37 W/m2 RA
03:54 40.8 °F 34.1 °F 29.71 in North 18.4 mph 18.4 mph 77% 0.07 in WeatherDisplay:10.37 W/m2 CLR
03:59 40.8 °F 34.1 °F 29.71 in North 16.1 mph 16.1 mph 77% 0.06 in WeatherDisplay:10.37 W/m2 CLR
04:04 40.9 °F 34.2 °F 29.71 in NNE 19.6 mph 19.6 mph 77% 0.05 in WeatherDisplay:10.37 W/m2 RA
04:09 40.9 °F 34.2 °F 29.71 in North 19.6 mph 19.6 mph 77% 0.04 in WeatherDisplay:10.37 W/m2 RA
04:14 41.0 °F 34.3 °F 29.71 in NNW 19.6 mph 19.6 mph 77% 0.03 in WeatherDisplay:10.37 W/m2 CLR
04:19 41.1 °F 34.4 °F 29.71 in NNW 19.6 mph 19.6 mph 77% 0.03 in WeatherDisplay:10.37 W/m2 CLR
04:24 41.1 °F 34.4 °F 29.72 in NNW 15.0 mph 15.0 mph 77% 0.02 in WeatherDisplay:10.37 W/m2 CLR
04:29 41.2 °F 34.5 °F 29.71 in North 13.0 mph 13.0 mph 77% 0.03 in WeatherDisplay:10.37 W/m2 RA
04:34 41.3 °F 34.0 °F 29.72 in North 18.4 mph 18.4 mph 75% 0.03 in WeatherDisplay:10.37 W/m2 RA
04:39 41.4 °F 34.1 °F 29.72 in North 17.3 mph 17.3 mph 75% 0.03 in WeatherDisplay:10.37 W/m2 CLR
04:44 41.5 °F 34.2 °F 29.72 in NNE 17.3 mph 17.3 mph 75% 0.02 in WeatherDisplay:10.37 W/m2 CLR
04:49 41.6 °F 33.9 °F 29.72 in NW 15.0 mph 15.0 mph 74% 0.02 in WeatherDisplay:10.37 W/m2 CLR
04:54 41.6 °F 33.9 °F 29.72 in NNW 12.0 mph 12.0 mph 74% 0.02 in WeatherDisplay:10.37 W/m2 CLR
04:59 41.7 °F 33.7 °F 29.73 in North 12.0 mph 12.0 mph 73% 0.02 in WeatherDisplay:10.37 W/m2 CLR
05:04 41.9 °F 33.2 °F 29.75 in NNW 17.3 mph 17.3 mph 71% 0.01 in WeatherDisplay:10.37 W/m2 CLR
05:09 41.9 °F 33.2 °F 29.75 in NNW 16.1 mph 16.1 mph 71% 0.01 in WeatherDisplay:10.37 W/m2 CLR
05:14 42.0 °F 32.9 °F 29.75 in NNW 20.7 mph 20.7 mph 70% 0.01 in WeatherDisplay:10.37 W/m2 CLR
05:19 42.0 °F 32.9 °F 29.75 in NNW 17.3 mph 17.3 mph 70% 0.01 in WeatherDisplay:10.37 W/m2 CLR
05:24 41.9 °F 33.2 °F 29.76 in North 18.4 mph 18.4 mph 71% 0.01 in WeatherDisplay:10.37 W/m2 CLR
05:29 41.9 °F 32.8 °F 29.76 in North 19.6 mph 19.6 mph 70% 0.00 in WeatherDisplay:10.37 W/m2 CLR
05:34 42.0 °F 32.9 °F 29.77 in North 18.4 mph 18.4 mph 70% 0.00 in WeatherDisplay:10.37 W/m2 CLR
05:39 41.9 °F 32.8 °F 29.78 in North 19.6 mph 19.6 mph 70% 0.00 in WeatherDisplay:10.37 W/m2 CLR
05:44 42.0 °F 32.9 °F 29.78 in North 16.1 mph 16.1 mph 70% 0.00 in WeatherDisplay:10.37 W/m2 CLR
05:49 42.0 °F 32.9 °F 29.78 in NE 16.1 mph 16.1 mph 70% 0.00 in WeatherDisplay:10.37 W/m2 CLR
05:54 42.0 °F 32.9 °F 29.78 in North 16.1 mph 16.1 mph 70% 0.00 in WeatherDisplay:10.37 W/m2 CLR
05:59 42.0 °F 32.9 °F 29.79 in North 16.0 mph 16.0 mph 70% 0.00 in WeatherDisplay:10.37 W/m2 CLR
06:04 41.9 °F 32.8 °F 29.81 in North 17.3 mph 17.3 mph 70% 0.00 in WeatherDisplay:10.37 W/m2 CLR
06:09 41.8 °F 32.7 °F 29.82 in North 9.2 mph 9.2 mph 70% 0.00 in WeatherDisplay:10.37 W/m2 CLR
06:14 41.8 °F 32.7 °F 29.82 in North 9.2 mph 9.2 mph 70% 0.00 in WeatherDisplay:10.37 W/m2 CLR
06:19 41.8 °F 32.7 °F 29.69 in Calm     70% 0.00 in WeatherDisplay:10.37 W/m2 CLR
06:24 41.8 °F 32.7 °F 29.70 in Calm     70% 0.00 in WeatherDisplay:10.37 W/m2 CLR
06:29 41.8 °F 32.7 °F 29.70 in Calm     70% 0.00 in WeatherDisplay:10.37 W/m2 CLR
06:34 41.8 °F 32.7 °F 29.71 in Calm     70% 0.00 in WeatherDisplay:10.37 W/m2 CLR
06:39 41.8 °F 32.7 °F 29.71 in Calm     70% 0.00 in WeatherDisplay:10.37 W/m2 CLR
06:44 41.8 °F 32.7 °F 29.72 in Calm     70% 0.00 in WeatherDisplay:10.37 W/m2 CLR
06:49 42.0 °F 32.6 °F 29.72 in North 6.0 mph 6.0 mph 69% 0.00 in WeatherDisplay:10.37 W/m2 CLR
06:54 42.0 °F 32.6 °F 29.85 in North 13.8 mph 13.8 mph 69% 0.00 in WeatherDisplay:10.37 W/m2 CLR
06:59 42.0 °F 32.6 °F 29.86 in NNW 16.1 mph 16.1 mph 69% 0.00 in WeatherDisplay:10.37 W/m2 CLR
07:04 42.2 °F 32.4 °F 29.90 in NNW 19.6 mph 19.6 mph 68% 0.00 in WeatherDisplay:10.37 W/m2 CLR
07:09 42.2 °F 32.8 °F 29.91 in North 10.4 mph 10.4 mph 69% 0.00 in WeatherDisplay:10.37 W/m2 CLR
07:14 42.3 °F 32.5 °F 29.91 in NNW 17.3 mph 17.3 mph 68% 0.00 in WeatherDisplay:10.37 W/m2 CLR
07:19 42.3 °F 32.5 °F 29.91 in NNW 17.3 mph 17.3 mph 68% 0.00 in WeatherDisplay:10.37 W/m2 CLR
07:24 42.3 °F 32.5 °F 29.91 in NNE 17.3 mph 17.3 mph 68% 0.00 in WeatherDisplay:10.37 W/m2 CLR
07:29 42.3 °F 32.8 °F 29.91 in NNW 17.3 mph 17.3 mph 69% 0.00 in WeatherDisplay:10.37 W/m2 CLR
07:34 42.3 °F 32.8 °F 29.92 in NNW 12.7 mph 12.7 mph 69% 0.00 in WeatherDisplay:10.37 W/m2 CLR
07:39 42.3 °F 32.8 °F 29.92 in NNW 12.7 mph 12.7 mph 69% 0.00 in WeatherDisplay:10.37 W/m2 CLR
07:44 42.4 °F 32.9 °F 29.92 in NW 11.5 mph 11.5 mph 69% 0.00 in WeatherDisplay:10.37 W/m2 CLR
07:49 42.5 °F 33.0 °F 29.92 in North 16.1 mph 16.1 mph 69% 0.00 in WeatherDisplay:10.37 W/m2 CLR
07:54 42.6 °F 32.8 °F 29.92 in NW 15.0 mph 15.0 mph 68% 0.00 in WeatherDisplay:10.37 W/m2 CLR
07:59 42.8 °F 32.6 °F 29.92 in NNW 9.2 mph 9.2 mph 67% 0.00 in WeatherDisplay:10.37 W/m2 CLR
08:04 42.9 °F 33.1 °F 29.94 in NNW 10.4 mph 10.4 mph 68% 0.00 in WeatherDisplay:10.37 W/m2 CLR
08:09 43.0 °F 33.2 °F 29.94 in NW 14.0 mph 14.0 mph 68% 0.00 in WeatherDisplay:10.37 W/m2 CLR
08:14 43.0 °F 32.8 °F 29.95 in NNW 17.3 mph 17.3 mph 67% 0.00 in WeatherDisplay:10.37 W/m2 CLR
08:19 43.0 °F 32.8 °F 29.94 in North 11.5 mph 11.5 mph 67% 0.00 in WeatherDisplay:10.37 W/m2 CLR
08:24 43.2 °F 32.6 °F 29.95 in North 13.0 mph 13.0 mph 66% 0.00 in WeatherDisplay:10.37 W/m2 CLR
08:29 43.3 °F 33.1 °F 29.94 in NNW 13.8 mph 13.8 mph 67% 0.00 in WeatherDisplay:10.37 W/m2 CLR
08:34 43.6 °F 33.0 °F 29.93 in North 13.8 mph 13.8 mph 66% 0.00 in WeatherDisplay:10.37 W/m2 CLR
08:39 43.8 °F 32.8 °F 29.93 in NNW 14.0 mph 14.0 mph 65% 0.00 in WeatherDisplay:10.37 W/m2 CLR
08:44 44.1 °F 32.3 °F 29.93 in NNW 13.8 mph 13.8 mph 63% 0.00 in WeatherDisplay:10.37 W/m2 CLR
08:49 44.3 °F 32.1 °F 29.93 in NW 26.5 mph 26.5 mph 62% 0.00 in WeatherDisplay:10.37 W/m2 CLR
08:54 44.5 °F 32.3 °F 29.93 in NNW 18.4 mph 18.4 mph 62% 0.00 in WeatherDisplay:10.37 W/m2 CLR
08:59 44.7 °F 32.1 °F 29.93 in North 18.4 mph 18.4 mph 61% 0.00 in WeatherDisplay:10.37 W/m2 CLR
09:04 45.0 °F 32.3 °F 29.96 in NE 12.7 mph 12.7 mph 61% 0.00 in WeatherDisplay:10.37 W/m2 CLR
09:09 45.2 °F 31.7 °F 29.96 in NNW 14.0 mph 14.0 mph 59% 0.00 in WeatherDisplay:10.37 W/m2 CLR
09:14 45.4 °F 31.5 °F 29.96 in West 19.6 mph 19.6 mph 58% 0.00 in WeatherDisplay:10.37 W/m2 CLR
09:19 45.8 °F 31.9 °F 29.95 in NW 15.0 mph 15.0 mph 58% 0.00 in WeatherDisplay:10.37 W/m2 CLR
09:24 46.0 °F 32.0 °F 29.96 in NNW 19.6 mph 19.6 mph 58% 0.00 in WeatherDisplay:10.37 W/m2 CLR
09:29 45.8 °F 31.4 °F 29.96 in NW 19.0 mph 19.0 mph 57% 0.00 in WeatherDisplay:10.37 W/m2 CLR
09:34 46.0 °F 32.0 °F 29.96 in NNW 12.7 mph 12.7 mph 58% 0.00 in WeatherDisplay:10.37 W/m2 CLR
09:39 46.6 °F 32.2 °F 29.96 in North 12.0 mph 12.0 mph 57% 0.00 in WeatherDisplay:10.37 W/m2 CLR
09:40 46.6 °F 32.2 °F 29.96 in NNW 11.5 mph 11.5 mph 57% 0.00 in WeatherDisplay:10.37 W/m2 CLR
09:45 47.0 °F 32.1 °F 29.96 in NNW 20.7 mph 20.7 mph 56% 0.00 in WeatherDisplay:10.37 W/m2 CLR
09:50 47.1 °F 32.2 °F 29.97 in NNE 16.1 mph 16.1 mph 56% 0.00 in WeatherDisplay:10.37 W/m2 CLR
09:55 47.1 °F 31.3 °F 29.97 in NNW 18.4 mph 18.4 mph 54% 0.00 in WeatherDisplay:10.37 W/m2 CLR
10:00 47.2 °F 31.8 °F 29.98 in NNW 15.0 mph 15.0 mph 55% 0.00 in WeatherDisplay:10.37 W/m2 CLR
10:05 47.8 °F 31.9 °F 29.98 in NNW 17.3 mph 17.3 mph 54% 0.00 in WeatherDisplay:10.37 W/m2 CLR
10:10 48.5 °F 32.1 °F 29.97 in NNW 21.9 mph 21.9 mph 53% 0.00 in WeatherDisplay:10.37 W/m2 CLR
10:15 48.6 °F 31.8 °F 29.97 in NNW 20.7 mph 20.7 mph 52% 0.00 in WeatherDisplay:10.37 W/m2 CLR
10:20 48.7 °F 31.8 °F 29.97 in North 16.1 mph 16.1 mph 52% 0.00 in WeatherDisplay:10.37 W/m2 CLR
10:25 49.6 °F 31.7 °F 29.97 in North 26.5 mph 26.5 mph 50% 0.00 in WeatherDisplay:10.37 W/m2 CLR
10:30 49.9 °F 32.0 °F 29.97 in North 11.5 mph 11.5 mph 50% 0.00 in WeatherDisplay:10.37 W/m2 CLR
10:35 50.5 °F 31.5 °F 29.97 in NNW 17.3 mph 17.3 mph 48% 0.00 in WeatherDisplay:10.37 W/m2 CLR
10:40 50.4 °F 31.9 °F 29.97 in NNE 13.8 mph 13.8 mph 49% 0.00 in WeatherDisplay:10.37 W/m2 CLR
10:45 50.0 °F 31.6 °F 29.98 in North 16.1 mph 16.1 mph 49% 0.00 in WeatherDisplay:10.37 W/m2 CLR
10:50 50.1 °F 31.2 °F 29.98 in WNW 20.7 mph 20.7 mph 48% 0.00 in WeatherDisplay:10.37 W/m2 CLR
10:55 50.8 °F 31.8 °F 29.96 in North 12.7 mph 12.7 mph 48% 0.00 in WeatherDisplay:10.37 W/m2 CLR
11:00 51.2 °F 32.2 °F 29.97 in NNW 17.3 mph 17.3 mph 48% 0.00 in WeatherDisplay:10.37 W/m2 CLR
11:05 51.4 °F 32.3 °F 29.98 in NW 18.4 mph 18.4 mph 48% 0.00 in WeatherDisplay:10.37 W/m2 CLR
11:10 51.3 °F 31.2 °F 29.98 in NNW 23.0 mph 23.0 mph 46% 0.00 in WeatherDisplay:10.37 W/m2 CLR
11:15 51.5 °F 32.4 °F 29.99 in North 15.0 mph 15.0 mph 48% 0.00 in WeatherDisplay:10.37 W/m2 CLR
11:20 51.9 °F 31.2 °F 29.99 in North 26.5 mph 26.5 mph 45% 0.00 in WeatherDisplay:10.37 W/m2 CLR
11:25 51.8 °F 30.6 °F 29.99 in NW 19.6 mph 19.6 mph 44% 0.00 in WeatherDisplay:10.37 W/m2 CLR
11:30 52.1 °F 30.8 °F 29.99 in North 19.6 mph 19.6 mph 44% 0.00 in WeatherDisplay:10.37 W/m2 CLR
11:35 52.2 °F 31.5 °F 29.99 in NNE 15.0 mph 15.0 mph 45% 0.00 in WeatherDisplay:10.37 W/m2 CLR
11:40 52.4 °F 31.7 °F 29.99 in NNW 17.3 mph 17.3 mph 45% 0.00 in WeatherDisplay:10.37 W/m2 CLR
11:45 52.9 °F 30.4 °F 29.99 in North 20.7 mph 20.7 mph 42% 0.00 in WeatherDisplay:10.37 W/m2 CLR
11:50 53.1 °F 31.2 °F 29.99 in North 17.3 mph 17.3 mph 43% 0.00 in WeatherDisplay:10.37 W/m2 CLR
11:55 53.2 °F 31.3 °F 29.99 in NE 17.3 mph 17.3 mph 43% 0.00 in WeatherDisplay:10.37 W/m2 CLR
12:00 52.9 °F 32.1 °F 29.98 in North 19.6 mph 19.6 mph 45% 0.00 in WeatherDisplay:10.37 W/m2 CLR
12:05 53.3 °F 31.4 °F 29.99 in North 12.7 mph 12.7 mph 43% 0.00 in WeatherDisplay:10.37 W/m2 CLR
12:10 53.3 °F 31.4 °F 29.98 in ENE 17.3 mph 17.3 mph 43% 0.00 in WeatherDisplay:10.37 W/m2 CLR
12:15 53.3 °F 31.4 °F 29.98 in NNW 13.8 mph 13.8 mph 43% 0.00 in WeatherDisplay:10.37 W/m2 CLR
12:20 53.8 °F 30.0 °F 29.97 in NNE 18.4 mph 18.4 mph 40% 0.00 in WeatherDisplay:10.37 W/m2 CLR
12:25 54.2 °F 30.4 °F 29.97 in North 16.1 mph 16.1 mph 40% 0.00 in WeatherDisplay:10.37 W/m2 CLR
12:30 54.4 °F 29.9 °F 29.97 in ENE 19.6 mph 19.6 mph 39% 0.00 in WeatherDisplay:10.37 W/m2 CLR
12:35 55.0 °F 29.8 °F 29.97 in NNW 19.6 mph 19.6 mph 38% 0.00 in WeatherDisplay:10.37 W/m2 CLR
12:40 55.0 °F 30.5 °F 29.97 in North 13.8 mph 13.8 mph 39% 0.00 in WeatherDisplay:10.37 W/m2 CLR
12:45 55.0 °F 30.5 °F 29.97 in NNW 14.0 mph 14.0 mph 39% 0.00 in WeatherDisplay:10.37 W/m2 CLR
12:50 55.3 °F 30.1 °F 29.97 in North 21.0 mph 21.0 mph 38% 0.00 in WeatherDisplay:10.37 W/m2 CLR
12:55 54.6 °F 30.1 °F 29.97 in NNW 19.6 mph 19.6 mph 39% 0.00 in WeatherDisplay:10.37 W/m2 CLR
13:00 54.7 °F 30.2 °F 29.97 in NNE 18.4 mph 18.4 mph 39% 0.00 in WeatherDisplay:10.37 W/m2 CLR
13:05 55.3 °F 28.8 °F 29.97 in North 13.0 mph 13.0 mph 36% 0.00 in WeatherDisplay:10.37 W/m2 CLR
13:11 55.3 °F 28.8 °F 29.97 in NNE 19.6 mph 19.6 mph 36% 0.00 in WeatherDisplay:10.37 W/m2 CLR
13:16 54.8 °F 28.3 °F 29.97 in NNW 18.4 mph 18.4 mph 36% 0.00 in WeatherDisplay:10.37 W/m2 CLR
13:21 55.1 °F 28.6 °F 29.97 in NE 18.4 mph 18.4 mph 36% 0.00 in WeatherDisplay:10.37 W/m2 CLR
13:26 55.1 °F 28.6 °F 29.97 in NNW 13.8 mph 13.8 mph 36% 0.00 in WeatherDisplay:10.37 W/m2 CLR
13:31 55.1 °F 27.2 °F 29.97 in NNE 13.8 mph 13.8 mph 34% 0.00 in WeatherDisplay:10.37 W/m2 CLR
13:36 55.6 °F 29.0 °F 29.96 in NNE 18.4 mph 18.4 mph 36% 0.00 in WeatherDisplay:10.37 W/m2 CLR
13:41 56.0 °F 28.7 °F 29.96 in NNE 11.5 mph 11.5 mph 35% 0.00 in WeatherDisplay:10.37 W/m2 CLR
13:46 55.6 °F 27.6 °F 29.96 in North 19.6 mph 19.6 mph 34% 0.00 in WeatherDisplay:10.37 W/m2 CLR
13:51 55.8 °F 27.8 °F 29.96 in North 13.0 mph 13.0 mph 34% 0.00 in WeatherDisplay:10.37 W/m2 CLR
14:01 56.2 °F 28.2 °F 29.96 in North 15.0 mph 15.0 mph 34% 0.00 in WeatherDisplay:10.37 W/m2 CLR
14:06 56.4 °F 27.6 °F 29.98 in NE 18.4 mph 18.4 mph 33% 0.00 in WeatherDisplay:10.37 W/m2 CLR
14:11 56.9 °F 27.3 °F 29.97 in North 18.4 mph 18.4 mph 32% 0.00 in WeatherDisplay:10.37 W/m2 CLR
14:16 57.2 °F 27.6 °F 29.97 in NNW 18.4 mph 18.4 mph 32% 0.00 in WeatherDisplay:10.37 W/m2 CLR
14:21 56.8 °F 28.0 °F 29.97 in NE 11.5 mph 11.5 mph 33% 0.00 in WeatherDisplay:10.37 W/m2 CLR
14:26 56.8 °F 28.0 °F 29.96 in NNW 12.7 mph 12.7 mph 33% 0.00 in WeatherDisplay:10.37 W/m2 CLR
14:31 57.4 °F 28.5 °F 29.96 in NNW 16.1 mph 16.1 mph 33% 0.00 in WeatherDisplay:10.37 W/m2 CLR
14:36 57.3 °F 27.7 °F 29.96 in NNW 11.5 mph 11.5 mph 32% 0.00 in WeatherDisplay:10.37 W/m2 CLR
14:41 57.1 °F 27.5 °F 29.96 in NE 17.0 mph 17.0 mph 32% 0.00 in WeatherDisplay:10.37 W/m2 CLR
14:46 57.4 °F 27.0 °F 29.96 in North 15.0 mph 15.0 mph 31% 0.00 in WeatherDisplay:10.37 W/m2 CLR
14:51 57.4 °F 27.7 °F 29.95 in ENE 19.6 mph 19.6 mph 32% 0.00 in WeatherDisplay:10.37 W/m2 CLR
14:56 57.1 °F 26.7 °F 29.96 in NNE 12.7 mph 12.7 mph 31% 0.00 in WeatherDisplay:10.37 W/m2 CLR
15:01 57.6 °F 27.2 °F 29.96 in North 13.8 mph 13.8 mph 31% 0.00 in WeatherDisplay:10.37 W/m2 CLR
15:06 58.2 °F 27.7 °F 29.95 in NNE 16.1 mph 16.1 mph 31% 0.00 in WeatherDisplay:10.37 W/m2 CLR
15:11 58.4 °F 27.9 °F 29.95 in NNE 15.0 mph 15.0 mph 31% 0.00 in WeatherDisplay:10.37 W/m2 CLR
15:16 58.3 °F 27.0 °F 29.95 in North 12.7 mph 12.7 mph 30% 0.00 in WeatherDisplay:10.37 W/m2 CLR
15:21 58.1 °F 26.8 °F 29.95 in NE 11.5 mph 11.5 mph 30% 0.00 in WeatherDisplay:10.37 W/m2 CLR
15:26 58.3 °F 27.0 °F 29.95 in NE 11.5 mph 11.5 mph 30% 0.00 in WeatherDisplay:10.37 W/m2 CLR
15:31 58.4 °F 27.1 °F 29.95 in North 11.5 mph 11.5 mph 30% 0.00 in WeatherDisplay:10.37 W/m2 CLR
15:36 58.5 °F 26.3 °F 29.94 in North 11.5 mph 11.5 mph 29% 0.00 in WeatherDisplay:10.37 W/m2 CLR
15:41 58.5 °F 27.9 °F 29.95 in NNW 11.5 mph 11.5 mph 31% 0.00 in WeatherDisplay:10.37 W/m2 CLR
15:46 59.0 °F 26.8 °F 29.94 in NE 9.2 mph 9.2 mph 29% 0.00 in WeatherDisplay:10.37 W/m2 CLR
15:51 59.1 °F 26.8 °F 29.94 in NNW 18.4 mph 18.4 mph 29% 0.00 in WeatherDisplay:10.37 W/m2 CLR
15:56 58.7 °F 26.5 °F 29.94 in NNE 11.5 mph 11.5 mph 29% 0.00 in WeatherDisplay:10.37 W/m2 CLR
16:01 57.9 °F 26.6 °F 29.94 in NW 9.2 mph 9.2 mph 30% 0.00 in WeatherDisplay:10.37 W/m2 CLR
16:06 57.8 °F 26.5 °F 29.94 in North 14.0 mph 14.0 mph 30% 0.00 in WeatherDisplay:10.37 W/m2 CLR
16:11 58.2 °F 26.1 °F 29.94 in North 11.5 mph 11.5 mph 29% 0.00 in WeatherDisplay:10.37 W/m2 CLR
16:16 58.6 °F 27.2 °F 29.94 in ENE 11.5 mph 11.5 mph 30% 0.00 in WeatherDisplay:10.37 W/m2 CLR
16:21 58.8 °F 26.6 °F 29.94 in North 11.5 mph 11.5 mph 29% 0.00 in WeatherDisplay:10.37 W/m2 CLR
16:27 59.0 °F 27.6 °F 29.93 in NE 17.3 mph 17.3 mph 30% 0.00 in WeatherDisplay:10.37 W/m2 CLR
16:32 59.0 °F 26.8 °F 29.94 in NE 6.9 mph 6.9 mph 29% 0.00 in WeatherDisplay:10.37 W/m2 CLR
16:37 58.5 °F 26.3 °F 29.94 in NE 6.9 mph 6.9 mph 29% 0.00 in WeatherDisplay:10.37 W/m2 CLR
16:42 58.1 °F 26.8 °F 29.94 in NNE 7.0 mph 7.0 mph 30% 0.00 in WeatherDisplay:10.37 W/m2 CLR
16:47 58.3 °F 25.3 °F 29.94 in NNE 12.7 mph 12.7 mph 28% 0.00 in WeatherDisplay:10.37 W/m2 CLR
16:52 58.4 °F 26.2 °F 29.94 in NNE 11.5 mph 11.5 mph 29% 0.00 in WeatherDisplay:10.37 W/m2 CLR
16:57 58.4 °F 26.2 °F 29.94 in NE 9.2 mph 9.2 mph 29% 0.00 in WeatherDisplay:10.37 W/m2 CLR
17:02 58.2 °F 26.9 °F 29.94 in NE 10.4 mph 10.4 mph 30% 0.00 in WeatherDisplay:10.37 W/m2 CLR
17:07 58.3 °F 26.1 °F 29.94 in NNE 10.4 mph 10.4 mph 29% 0.00 in WeatherDisplay:10.37 W/m2 CLR
17:12 58.4 °F 25.4 °F 29.94 in NNE 9.2 mph 9.2 mph 28% 0.00 in WeatherDisplay:10.37 W/m2 CLR
17:17 58.1 °F 25.1 °F 29.94 in NE 7.0 mph 7.0 mph 28% 0.00 in WeatherDisplay:10.37 W/m2 CLR
17:22 57.8 °F 24.9 °F 29.94 in ENE 11.5 mph 11.5 mph 28% 0.00 in WeatherDisplay:10.37 W/m2 CLR
17:27 57.8 °F 25.7 °F 29.93 in ENE 6.9 mph 6.9 mph 29% 0.00 in WeatherDisplay:10.37 W/m2 CLR
17:32 57.8 °F 25.7 °F 29.93 in NE 8.1 mph 8.1 mph 29% 0.00 in WeatherDisplay:10.37 W/m2 CLR
17:37 57.8 °F 24.9 °F 29.93 in ENE 11.5 mph 11.5 mph 28% 0.00 in WeatherDisplay:10.37 W/m2 CLR
17:42 57.8 °F 25.7 °F 29.93 in ENE 15.0 mph 15.0 mph 29% 0.00 in WeatherDisplay:10.37 W/m2 CLR
17:47 57.5 °F 25.5 °F 29.93 in ENE 12.7 mph 12.7 mph 29% 0.00 in WeatherDisplay:10.37 W/m2 CLR
17:52 57.5 °F 25.5 °F 29.93 in NE 5.8 mph 5.8 mph 29% 0.00 in WeatherDisplay:10.37 W/m2 CLR
17:57 57.5 °F 25.5 °F 29.93 in ENE 9.2 mph 9.2 mph 29% 0.00 in WeatherDisplay:10.37 W/m2 CLR
18:02 57.3 °F 25.3 °F 29.94 in ENE 11.5 mph 11.5 mph 29% 0.00 in WeatherDisplay:10.37 W/m2 CLR
18:07 56.9 °F 25.7 °F 29.95 in NE 5.8 mph 5.8 mph 30% 0.00 in WeatherDisplay:10.37 W/m2 CLR
18:12 56.4 °F 25.3 °F 29.95 in ENE 11.5 mph 11.5 mph 30% 0.00 in WeatherDisplay:10.37 W/m2 CLR
18:17 56.1 °F 25.1 °F 29.95 in NE 10.4 mph 10.4 mph 30% 0.00 in WeatherDisplay:10.37 W/m2 CLR
18:22 55.9 °F 24.9 °F 29.95 in East 10.0 mph 10.0 mph 30% 0.00 in WeatherDisplay:10.37 W/m2 CLR
18:27 55.6 °F 24.6 °F 29.96 in ENE 5.8 mph 5.8 mph 30% 0.00 in WeatherDisplay:10.37 W/m2 CLR
18:32 55.4 °F 26.0 °F 29.96 in ENE 3.5 mph 3.5 mph 32% 0.00 in WeatherDisplay:10.37 W/m2 CLR
18:37 55.2 °F 25.8 °F 29.97 in ESE 3.5 mph 3.5 mph 32% 0.00 in WeatherDisplay:10.37 W/m2 CLR
18:42 55.0 °F 25.6 °F 29.97 in ESE 3.5 mph 3.5 mph 32% 0.00 in WeatherDisplay:10.37 W/m2 CLR
18:47 54.9 °F 26.3 °F 29.98 in East 5.0 mph 5.0 mph 33% 0.00 in WeatherDisplay:10.37 W/m2 CLR
18:52 54.7 °F 26.1 °F 29.98 in ESE 3.5 mph 3.5 mph 33% 0.00 in WeatherDisplay:10.37 W/m2 CLR
18:57 54.4 °F 25.9 °F 29.98 in East 3.5 mph 3.5 mph 33% 0.00 in WeatherDisplay:10.37 W/m2 CLR
19:02 54.1 °F 26.3 °F 29.98 in East 3.5 mph 3.5 mph 34% 0.00 in WeatherDisplay:10.37 W/m2 CLR
19:07 53.8 °F 26.8 °F 29.98 in ESE 5.8 mph 5.8 mph 35% 0.00 in WeatherDisplay:10.37 W/m2 CLR
19:12 53.2 °F 27.6 °F 29.99 in ESE 3.5 mph 3.5 mph 37% 0.00 in WeatherDisplay:10.37 W/m2 CLR
19:17 52.7 °F 27.8 °F 29.98 in SE 5.8 mph 5.8 mph 38% 0.00 in WeatherDisplay:10.37 W/m2 CLR
19:22 52.5 °F 27.6 °F 29.98 in SE 3.5 mph 3.5 mph 38% 0.00 in WeatherDisplay:10.37 W/m2 CLR
19:32 52.1 °F 27.9 °F 29.99 in SE 3.5 mph 3.5 mph 39% 0.00 in WeatherDisplay:10.37 W/m2 CLR
19:37 51.6 °F 28.0 °F 29.99 in SE 3.5 mph 3.5 mph 40% 0.00 in WeatherDisplay:10.37 W/m2 CLR
19:42 51.1 °F 28.2 °F 30.00 in SSE 2.3 mph 2.3 mph 41% 0.00 in WeatherDisplay:10.37 W/m2 CLR
19:47 50.6 °F 27.7 °F 30.00 in SSE 3.5 mph 3.5 mph 41% 0.00 in WeatherDisplay:10.37 W/m2 CLR
19:52 49.9 °F 27.7 °F 30.01 in SE 4.6 mph 4.6 mph 42% 0.00 in WeatherDisplay:10.37 W/m2 CLR
19:57 49.2 °F 27.6 °F 30.01 in SE 3.5 mph 3.5 mph 43% 0.00 in WeatherDisplay:10.37 W/m2 CLR
20:02 48.6 °F 28.2 °F 30.00 in SSE 3.5 mph 3.5 mph 45% 0.00 in WeatherDisplay:10.37 W/m2 CLR
20:07 48.0 °F 28.7 °F 30.02 in SSE 3.5 mph 3.5 mph 47% 0.00 in WeatherDisplay:10.37 W/m2 CLR
20:12 47.5 °F 29.3 °F 30.02 in SE 5.8 mph 5.8 mph 49% 0.00 in WeatherDisplay:10.37 W/m2 CLR
20:17 47.1 °F 29.4 °F 30.02 in SSE 3.5 mph 3.5 mph 50% 0.00 in WeatherDisplay:10.37 W/m2 CLR
20:22 46.8 °F 29.6 °F 30.02 in South 6.9 mph 6.9 mph 51% 0.00 in WeatherDisplay:10.37 W/m2 CLR
20:27 46.5 °F 29.8 °F 30.02 in SSW 9.2 mph 9.2 mph 52% 0.00 in WeatherDisplay:10.37 W/m2 CLR
20:32 46.1 °F 29.9 °F 30.03 in South 4.6 mph 4.6 mph 53% 0.00 in WeatherDisplay:10.37 W/m2 CLR
20:37 45.9 °F 29.7 °F 30.03 in South 3.5 mph 3.5 mph 53% 0.00 in WeatherDisplay:10.37 W/m2 CLR
20:42 45.9 °F 29.7 °F 30.03 in South 3.5 mph 3.5 mph 53% 0.00 in WeatherDisplay:10.37 W/m2 CLR
20:47 45.8 °F 29.6 °F 30.03 in South 3.5 mph 3.5 mph 53% 0.00 in WeatherDisplay:10.37 W/m2 CLR
20:52 45.4 °F 29.7 °F 30.03 in SSE 9.2 mph 9.2 mph 54% 0.00 in WeatherDisplay:10.37 W/m2 CLR
20:57 45.4 °F 29.7 °F 30.03 in South 6.9 mph 6.9 mph 54% 0.00 in WeatherDisplay:10.37 W/m2 CLR
21:02 45.3 °F 29.6 °F 30.02 in South 3.5 mph 3.5 mph 54% 0.00 in WeatherDisplay:10.37 W/m2 CLR
21:07 45.1 °F 29.9 °F 30.02 in South 4.0 mph 4.0 mph 55% 0.00 in WeatherDisplay:10.37 W/m2 CLR
21:12 44.5 °F 29.3 °F 30.03 in SSE 3.5 mph 3.5 mph 55% 0.00 in WeatherDisplay:10.37 W/m2 CLR
21:17 43.8 °F 29.1 °F 30.04 in SSW 3.5 mph 3.5 mph 56% 0.00 in WeatherDisplay:10.37 W/m2 CLR
21:22 43.8 °F 29.5 °F 30.03 in SSW 3.5 mph 3.5 mph 57% 0.00 in WeatherDisplay:10.37 W/m2 CLR
21:27 44.1 °F 29.8 °F 30.03 in South 3.5 mph 3.5 mph 57% 0.00 in WeatherDisplay:10.37 W/m2 CLR
21:33 44.0 °F 29.3 °F 30.03 in South 1.2 mph 1.2 mph 56% 0.00 in WeatherDisplay:10.37 W/m2 CLR
21:38 43.4 °F 29.2 °F 30.03 in South 1.0 mph   57% 0.00 in WeatherDisplay:10.37 W/m2 CLR
21:43 43.1 °F 29.3 °F 30.03 in Calm     58% 0.00 in WeatherDisplay:10.37 W/m2 CLR
21:53 42.1 °F 29.2 °F 30.04 in Calm     60% 0.00 in WeatherDisplay:10.37 W/m2 CLR
Windsor Co Weather
Compliments of Weather Underground - 2.75 mb